Time;durP1;ratioP1;P1;durP2;ratioP2;P2;SDS_P1;SDS_P2;PMS_P1;PMS_P2;Temp;Humidity;BMP_temperature;BMP_pressure;BME280_temperature;BME280_humidity;BME280_pressure;Samples;Min_cycle;Max_cycle;Signal;HPM_P1;HPM_P2
2022/07/07 00:25:50;;;;;;;4.65;1.90;;;16.60;99.90;;;;;;6282278;22;20059;-94
2022/07/07 00:28:16;;;;;;;5.95;2.08;;;16.60;99.90;;;;;;6232550;22;20020;-89
2022/07/07 00:31:29;;;;;;;4.60;2.00;;;16.60;99.90;;;;;;6231073;22;20449;-93
2022/07/07 00:33:55;;;;;;;4.85;1.83;;;16.60;99.90;;;;;;6233189;22;20242;-91
2022/07/07 00:36:21;;;;;;;5.38;2.00;;;16.60;99.90;;;;;;6229826;22;20012;-93
2022/07/07 00:38:47;;;;;;;4.50;1.75;;;16.60;99.90;;;;;;6229519;22;20074;-89
2022/07/07 00:41:14;;;;;;;3.80;1.70;;;16.60;99.90;;;;;;6227286;22;20051;-88
2022/07/07 00:43:41;;;;;;;4.60;2.05;;;16.60;99.90;;;;;;6227722;22;20015;-90
2022/07/07 00:46:44;;;;;;;4.78;1.98;;;16.60;99.90;;;;;;6227707;22;20008;-90
2022/07/07 00:52:12;;;;;;;;;;;16.60;99.90;;;;;;6174343;22;20022;-89
2022/07/07 00:54:57;;;;;;;2.85;1.20;;;16.60;99.90;;;;;;6207877;23;19924;-90
2022/07/07 00:57:24;;;;;;;2.03;0.90;;;16.50;99.90;;;;;;6203318;23;20018;-89
2022/07/07 00:59:50;;;;;;;1.77;0.90;;;16.50;99.90;;;;;;6202425;23;20018;-89
2022/07/07 01:02:16;;;;;;;1.70;0.90;;;16.40;99.90;;;;;;6202498;23;20048;-88
2022/07/07 01:04:44;;;;;;;2.22;1.10;;;16.40;99.90;;;;;;6229823;23;20014;-88
2022/07/07 01:07:16;;;;;;;1.70;0.90;;;16.40;99.90;;;;;;6190954;23;20022;-88
2022/07/07 01:09:52;;;;;;;1.80;0.70;;;16.40;99.90;;;;;;6162296;23;20442;-89
2022/07/07 01:13:12;;;;;;;4.13;1.13;;;16.30;99.90;;;;;;6187418;23;20063;-89
2022/07/07 01:15:47;;;;;;;3.70;1.08;;;16.30;99.90;;;;;;6155562;23;20439;-89
2022/07/07 01:26:05;;;;;;;3.15;1.10;;;16.30;99.90;;;;;;6122793;23;20443;-89
2022/07/07 01:28:33;;;;;;;2.83;0.95;;;16.20;99.90;;;;;;6199967;23;20022;-90
2022/07/07 01:31:05;;;;;;;1.83;0.95;;;16.20;99.90;;;;;;6200929;23;20053;-89
2022/07/07 01:33:31;;;;;;;2.97;1.27;;;16.30;99.90;;;;;;6202128;23;20025;-90
2022/07/07 01:35:57;;;;;;;;;;;16.20;99.90;;;;;;6226169;23;20018;-92
2022/07/07 01:38:23;;;;;;;2.60;1.13;;;16.20;99.90;;;;;;6251961;22;19921;-88
2022/07/07 01:40:48;;;;;;;3.15;1.15;;;16.20;99.90;;;;;;6200084;23;20061;-92
2022/07/07 01:43:15;;;;;;;3.92;1.30;;;16.20;99.90;;;;;;6201437;23;20022;-90
2022/07/07 01:45:47;;;;;;;3.10;1.20;;;16.20;99.90;;;;;;6124225;23;20025;-88
2022/07/07 01:48:14;;;;;;;3.45;1.20;;;16.20;99.90;;;;;;6200667;23;20041;-88
2022/07/07 01:50:43;;;;;;;2.38;1.15;;;16.20;99.90;;;;;;6219926;23;20018;-90
2022/07/07 01:53:09;;;;;;;6.90;1.88;;;16.20;99.90;;;;;;6224697;23;20021;-90
2022/07/07 01:55:38;;;;;;;3.35;1.30;;;16.20;99.90;;;;;;6199379;23;20014;-89
2022/07/07 01:58:04;;;;;;;2.33;1.10;;;16.20;99.90;;;;;;6174190;23;20014;-89
2022/07/07 02:00:30;;;;;;;2.70;1.10;;;16.20;99.90;;;;;;6199195;23;20393;-92
2022/07/07 02:02:55;;;;;;;3.22;0.98;;;16.20;99.90;;;;;;6199494;23;20069;-89
2022/07/07 02:05:27;;;;;;;3.47;1.20;;;16.20;99.90;;;;;;6200555;23;20344;-89
2022/07/07 02:08:31;;;;;;;3.22;1.13;;;16.20;99.90;;;;;;6191948;23;20099;-91
2022/07/07 02:41:29;;;;;;;2.85;0.90;;;16.10;99.90;;;;;;6246930;22;20024;-89
2022/07/07 02:44:08;;;;;;;2.15;0.60;;;16.10;99.90;;;;;;6177791;22;20020;-90
2022/07/07 02:46:56;;;;;;;2.35;0.75;;;16.10;99.90;;;;;;6275312;22;20016;-89
2022/07/07 02:49:22;;;;;;;2.95;0.75;;;16.10;99.90;;;;;;6224763;22;20019;-91
2022/07/07 02:51:57;;;;;;;1.55;0.60;;;16.10;99.90;;;;;;6228260;22;20395;-89
2022/07/07 02:54:25;;;;;;;2.05;0.80;;;16.20;99.90;;;;;;6228978;22;20026;-89
2022/07/07 02:56:59;;;;;;;3.10;0.80;;;16.20;99.90;;;;;;6226081;22;20344;-90
2022/07/07 03:00:10;;;;;;;2.15;0.68;;;16.10;99.90;;;;;;6227729;22;20018;-91
2022/07/07 03:03:37;;;;;;;2.28;0.80;;;16.10;99.90;;;;;;6209691;22;20511;-91
2022/07/07 03:21:35;;;;;;;3.20;0.80;;;16.10;99.90;;;;;;6161271;22;20029;-88
2022/07/07 03:24:19;;;;;;;3.53;0.68;;;16.10;99.90;;;;;;6165439;23;20031;-90
2022/07/07 03:26:49;;;;;;;0.70;0.35;;;16.10;99.90;;;;;;6139376;23;20019;-89
2022/07/07 03:29:16;;;;;;;1.75;0.20;;;16.00;99.90;;;;;;6140421;23;20023;-88
2022/07/07 05:59:22;;;;;;;2.53;0.73;;;15.50;99.90;;;;;;6282499;22;20019;-90
2022/07/07 06:01:48;;;;;;;3.50;0.88;;;15.50;99.90;;;;;;6233371;22;20024;-91
2022/07/07 06:04:13;;;;;;;1.90;0.50;;;15.50;99.90;;;;;;6230431;22;20007;-92
2022/07/07 06:06:39;;;;;;;3.33;0.57;;;15.50;99.90;;;;;;6227008;22;20285;-89
2022/07/07 06:09:05;;;;;;;2.17;0.73;;;15.60;99.90;;;;;;6226690;22;20085;-89
2022/07/07 06:11:31;;;;;;;1.30;0.50;;;15.60;99.90;;;;;;6225720;22;20102;-95
2022/07/07 06:13:56;;;;;;;3.30;0.60;;;15.60;99.90;;;;;;6225638;22;20251;-93
2022/07/07 06:16:38;;;;;;;1.02;0.30;;;15.60;99.90;;;;;;6226215;22;20773;-92
2022/07/07 06:19:08;;;;;;;2.08;0.38;;;15.70;99.90;;;;;;6234581;22;20000;-92
2022/07/07 06:21:35;;;;;;;1.73;0.40;;;15.70;99.90;;;;;;6251813;22;20027;-90
2022/07/07 06:24:01;;;;;;;1.58;0.30;;;15.70;99.90;;;;;;6240647;22;20012;-93
2022/07/07 06:26:28;;;;;;;2.38;0.40;;;15.70;99.90;;;;;;6207112;22;20058;-92
2022/07/07 06:28:54;;;;;;;1.25;0.30;;;15.70;99.90;;;;;;6254935;22;20016;-94
2022/07/07 06:31:19;;;;;;;3.10;0.40;;;15.70;99.90;;;;;;6228024;22;20023;-91
2022/07/07 06:33:48;;;;;;;2.30;0.52;;;15.80;99.90;;;;;;6228543;22;20020;-91
2022/07/07 06:36:17;;;;;;;0.98;0.40;;;15.90;99.90;;;;;;6254299;22;20016;-89
2022/07/07 06:38:53;;;;;;;1.77;0.28;;;16.00;99.90;;;;;;6229777;22;20026;-91
2022/07/07 06:41:21;;;;;;;;;;;16.00;99.90;;;;;;6227549;22;20077;-89
2022/07/07 06:43:46;;;;;;;1.45;0.35;;;16.00;99.90;;;;;;6225440;22;20072;-89
2022/07/07 06:46:12;;;;;;;2.60;0.30;;;16.00;99.90;;;;;;6229449;22;20456;-89
2022/07/07 06:48:38;;;;;;;1.80;0.47;;;15.90;99.90;;;;;;6250159;22;20299;-91
2022/07/07 06:51:04;;;;;;;2.45;0.50;;;16.00;99.90;;;;;;6225326;22;20012;-96
2022/07/07 06:53:30;;;;;;;2.50;0.70;;;16.10;99.90;;;;;;6250475;22;20023;-90
2022/07/07 06:55:55;;;;;;;0.63;0.10;;;16.10;99.90;;;;;;6250347;22;20530;-92
2022/07/07 06:58:21;;;;;;;2.60;0.30;;;16.20;99.90;;;;;;6229598;22;20054;-89
2022/07/07 07:00:47;;;;;;;2.00;0.52;;;16.30;99.90;;;;;;6200620;23;20024;-96
2022/07/07 07:03:13;;;;;;;1.92;0.30;;;16.40;99.90;;;;;;6231123;22;20016;-91
2022/07/07 07:05:56;;;;;;;1.60;0.28;;;16.50;99.90;;;;;;6229864;22;20022;-93
2022/07/07 07:08:21;;;;;;;1.95;0.30;;;16.50;99.90;;;;;;6225569;22;20038;-90
2022/07/07 07:10:47;;;;;;;0.60;0.20;;;16.60;99.90;;;;;;6226288;22;20448;-94
2022/07/07 07:13:13;;;;;;;0.73;0.20;;;16.50;99.90;;;;;;6230607;22;20011;-94
2022/07/07 07:15:39;;;;;;;1.10;0.20;;;16.60;99.90;;;;;;6234464;22;20020;-91
2022/07/07 07:18:10;;;;;;;0.82;0.20;;;16.50;99.90;;;;;;6254097;22;20472;-89
2022/07/07 07:20:36;;;;;;;4.53;0.35;;;16.50;99.90;;;;;;6227548;22;20024;-91
2022/07/07 07:23:06;;;;;;;0.30;0.10;;;16.50;99.90;;;;;;6227494;22;20038;-90
2022/07/07 07:25:32;;;;;;;1.13;0.25;;;16.50;99.90;;;;;;6228354;22;20020;-94
2022/07/07 07:28:01;;;;;;;1.00;0.10;;;16.50;99.90;;;;;;6228461;22;20081;-90
2022/07/07 07:30:31;;;;;;;0.30;0.10;;;16.50;99.90;;;;;;6224385;22;20015;-95
2022/07/07 07:33:10;;;;;;;0.47;0.10;;;16.50;99.90;;;;;;6225144;22;20026;-92
2022/07/07 07:35:36;;;;;;;0.10;0.05;;;16.40;99.90;;;;;;6227538;22;20027;-91
2022/07/07 07:38:09;;;;;;;0.13;0.10;;;16.40;99.90;;;;;;6230127;22;20015;-89
2022/07/07 07:41:16;;;;;;;0.38;0.15;;;16.30;99.90;;;;;;6226659;22;20047;-91
2022/07/07 07:43:41;;;;;;;0.47;0.10;;;16.20;99.90;;;;;;6228563;22;20088;-92
2022/07/07 07:46:08;;;;;;;0.88;0.15;;;16.20;99.90;;;;;;6227218;22;20472;-89
2022/07/07 07:48:33;;;;;;;1.00;0.20;;;16.20;99.90;;;;;;6250248;22;20103;-89
2022/07/07 07:50:59;;;;;;;1.27;0.30;;;16.20;99.90;;;;;;6225112;22;20058;-89
2022/07/07 07:53:25;;;;;;;3.10;0.20;;;16.30;99.90;;;;;;6224555;22;20047;-90
2022/07/07 07:55:51;;;;;;;0.28;0.10;;;16.50;99.90;;;;;;6224793;22;20107;-94
2022/07/07 07:58:18;;;;;;;0.30;0.20;;;16.60;99.90;;;;;;6230097;22;20046;-88
2022/07/07 08:00:47;;;;;;;0.75;0.30;;;16.80;99.90;;;;;;6230799;22;20023;-88
2022/07/07 08:03:17;;;;;;;1.10;0.15;;;16.70;99.90;;;;;;6232353;22;20016;-89
2022/07/07 08:05:44;;;;;;;1.40;0.13;;;16.70;99.90;;;;;;6257563;22;20068;-89
2022/07/07 08:08:11;;;;;;;1.38;0.20;;;16.60;99.90;;;;;;6232663;22;20042;-88
2022/07/07 08:10:37;;;;;;;0.30;0.10;;;16.60;99.90;;;;;;6258153;22;20024;-88
2022/07/07 08:13:04;;;;;;;0.80;0.20;;;16.50;99.90;;;;;;6233289;22;20006;-89
2022/07/07 08:15:34;;;;;;;0.88;0.25;;;16.50;99.90;;;;;;6233036;22;20031;-88
2022/07/07 08:18:00;;;;;;;0.35;0.15;;;16.70;99.90;;;;;;6234176;22;20012;-90
2022/07/07 08:20:26;;;;;;;3.22;0.30;;;16.70;99.90;;;;;;6257483;22;20053;-91
2022/07/07 08:22:57;;;;;;;1.85;0.55;;;16.80;99.90;;;;;;6232686;22;20012;-91
2022/07/07 08:25:24;;;;;;;1.60;0.30;;;16.90;99.90;;;;;;6230744;22;20019;-89
2022/07/07 08:28:13;;;;;;;2.67;0.80;;;16.90;99.90;;;;;;6205038;22;20039;-89
2022/07/07 08:30:42;;;;;;;1.98;0.57;;;17.00;99.90;;;;;;6230208;22;20096;-88
2022/07/07 08:33:12;;;;;;;2.03;0.50;;;17.10;99.90;;;;;;6235110;22;20016;-88
2022/07/07 08:35:37;;;;;;;2.13;0.60;;;17.00;99.90;;;;;;6237313;22;20019;-89
2022/07/07 08:38:04;;;;;;;1.60;0.40;;;17.00;99.90;;;;;;6261317;22;20012;-89
2022/07/07 08:40:30;;;;;;;2.30;0.50;;;16.90;99.90;;;;;;6229783;22;20027;-90
2022/07/07 08:42:57;;;;;;;1.85;0.43;;;16.80;99.90;;;;;;6233406;22;20012;-88
2022/07/07 08:45:25;;;;;;;1.65;0.40;;;16.80;99.90;;;;;;6285386;22;20020;-89
2022/07/07 08:47:51;;;;;;;1.40;0.35;;;16.70;99.90;;;;;;6258501;22;20015;-89
2022/07/07 08:50:19;;;;;;;1.15;0.40;;;16.70;99.90;;;;;;6231981;22;20026;-90
2022/07/07 08:52:54;;;;;;;1.48;0.40;;;16.70;99.90;;;;;;6235135;22;20081;-89
2022/07/07 08:55:24;;;;;;;2.35;0.43;;;16.70;99.90;;;;;;6231457;22;20012;-90
2022/07/07 08:57:51;;;;;;;1.85;0.43;;;16.70;99.90;;;;;;6227644;22;20019;-89
2022/07/07 09:00:18;;;;;;;2.25;0.50;;;16.80;99.90;;;;;;6226980;22;20018;-92
2022/07/07 09:02:46;;;;;;;3.85;0.70;;;16.80;99.90;;;;;;6251538;22;20016;-88
2022/07/07 09:05:40;;;;;;;2.08;0.50;;;16.90;99.90;;;;;;6233067;22;20018;-91
2022/07/07 09:09:11;;;;;;;;;;;;;;;;;;;;;
2022/07/07 09:53:23;;;;;;;2.88;0.50;;;16.70;99.90;;;;;;6166750;23;20027;-89
2022/07/07 09:56:01;;;;;;;1.92;0.40;;;16.70;99.90;;;;;;6172581;23;20026;-91
2022/07/07 09:58:27;;;;;;;3.03;0.60;;;16.60;99.90;;;;;;6172265;23;20018;-90
2022/07/07 10:00:53;;;;;;;4.38;0.52;;;16.60;99.90;;;;;;6198008;23;20023;-90
2022/07/07 10:03:19;;;;;;;2.90;0.40;;;16.70;99.90;;;;;;6171484;23;20027;-93
2022/07/07 10:05:45;;;;;;;0.98;0.30;;;16.70;99.90;;;;;;6172760;23;20025;-90
2022/07/07 10:08:46;;;;;;;2.25;0.30;;;16.70;99.90;;;;;;6173993;23;20023;-91
2022/07/07 10:11:13;;;;;;;0.77;0.20;;;16.70;99.90;;;;;;6063472;23;20026;-91
2022/07/07 10:13:43;;;;;;;1.80;0.30;;;16.60;99.90;;;;;;6174367;23;20053;-93
2022/07/07 10:16:10;;;;;;;2.05;0.50;;;16.60;99.90;;;;;;6172129;23;20014;-88
2022/07/07 10:18:39;;;;;;;0.73;0.30;;;16.60;99.90;;;;;;6171225;23;20018;-91
2022/07/07 10:21:16;;;;;;;1.65;0.40;;;16.60;99.90;;;;;;6170435;23;20125;-91
2022/07/07 10:23:42;;;;;;;3.10;0.40;;;16.40;99.90;;;;;;6170183;23;20070;-92
2022/07/07 10:26:08;;;;;;;4.78;0.40;;;16.40;99.90;;;;;;6170362;23;20018;-92
2022/07/07 10:28:59;;;;;;;3.53;0.60;;;16.30;99.90;;;;;;6170937;23;20102;-92
2022/07/07 10:31:27;;;;;;;3.30;0.75;;;16.40;99.90;;;;;;6158365;23;20018;-93
2022/07/07 10:34:00;;;;;;;4.05;0.77;;;16.40;99.90;;;;;;6171856;23;20023;-90
2022/07/07 10:36:26;;;;;;;4.63;0.50;;;16.50;99.90;;;;;;6174011;23;20054;-90
2022/07/07 10:39:13;;;;;;;2.53;0.60;;;16.50;99.90;;;;;;6172016;23;20022;-93
2022/07/07 10:41:58;;;;;;;4.07;0.70;;;16.50;99.90;;;;;;6174595;23;20025;-91
2022/07/07 10:44:24;;;;;;;2.35;0.60;;;16.50;99.90;;;;;;6171836;23;20015;-90
2022/07/07 10:47:06;;;;;;;4.05;0.82;;;16.50;99.90;;;;;;6171543;23;20343;-95
2022/07/07 10:49:41;;;;;;;3.50;0.88;;;16.50;99.90;;;;;;6169991;23;20081;-91
2022/07/07 10:52:21;;;;;;;3.53;0.60;;;16.50;99.90;;;;;;6196308;23;20022;-92
2022/07/07 11:16:27;;;;;;;3.20;0.50;;;16.60;99.90;;;;;;6215786;23;20024;-88
2022/07/07 11:18:57;;;;;;;3.92;0.52;;;16.50;99.90;;;;;;6167019;23;20028;-91
2022/07/07 11:21:34;;;;;;;5.40;0.70;;;16.60;99.90;;;;;;6192561;23;20017;-91
2022/07/07 11:24:02;;;;;;;;;;;16.60;99.90;;;;;;6220516;23;20078;-96
2022/07/07 11:26:55;;;;;;;1.52;0.57;;;16.60;99.90;;;;;;6167548;23;19931;-89
2022/07/07 11:33:29;;;;;;;2.70;0.60;;;16.70;99.90;;;;;;6216630;23;20075;-87
2022/07/07 11:35:55;;;;;;;2.35;0.40;;;16.80;99.90;;;;;;6166493;23;20095;-90
2022/07/07 11:38:27;;;;;;;2.42;0.73;;;17.00;99.90;;;;;;6190357;23;20024;-89
2022/07/07 11:40:53;;;;;;;2.72;0.55;;;17.20;99.90;;;;;;6164592;23;20020;-90
2022/07/07 11:53:40;;;;;;;3.17;0.93;;;17.20;99.90;;;;;;6230374;22;20025;-91
2022/07/07 11:56:06;;;;;;;2.78;0.40;;;17.20;99.90;;;;;;6187362;23;20026;-90
2022/07/07 11:58:32;;;;;;;3.83;0.60;;;17.20;99.90;;;;;;6172837;23;20011;-88
2022/07/07 12:00:59;;;;;;;2.28;0.80;;;17.30;99.90;;;;;;6170320;23;20069;-92
2022/07/07 12:03:30;;;;;;;4.18;0.70;;;17.30;99.90;;;;;;6197650;23;20471;-93
2022/07/07 12:05:56;;;;;;;3.42;0.60;;;17.40;99.90;;;;;;6169826;23;20018;-92
2022/07/07 12:08:32;;;;;;;3.55;0.80;;;17.40;99.90;;;;;;6168353;23;20078;-90
2022/07/07 12:10:58;;;;;;;3.22;0.60;;;17.40;99.90;;;;;;6165992;23;20093;-91
2022/07/07 12:13:26;;;;;;;3.03;0.60;;;17.30;99.90;;;;;;6166663;23;20053;-89
2022/07/07 12:15:53;;;;;;;3.30;0.65;;;17.30;99.90;;;;;;6194086;23;20367;-93
2022/07/07 12:34:56;;;;;;;2.25;0.47;;;17.50;99.90;;;;;;6134059;22;20023;-92
2022/07/07 12:51:41;;;;;;;3.38;0.57;;;17.00;99.90;;;;;;6270034;22;20028;-95
2022/07/07 12:54:39;;;;;;;3.00;0.50;;;17.00;99.90;;;;;;6251036;22;20341;-92
2022/07/07 12:57:12;;;;;;;4.25;0.90;;;16.90;99.90;;;;;;6232575;22;20019;-89
2022/07/07 12:59:40;;;;;;;4.20;0.60;;;16.80;99.90;;;;;;6257707;22;20015;-92
2022/07/07 13:02:07;;;;;;;4.68;0.70;;;16.70;99.90;;;;;;6255323;22;20462;-87
2022/07/07 13:04:33;;;;;;;5.55;0.82;;;16.70;99.90;;;;;;6229085;22;20027;-87
2022/07/07 13:06:59;;;;;;;3.78;0.65;;;16.70;99.90;;;;;;6231496;22;20012;-89
2022/07/07 13:09:24;;;;;;;3.50;0.82;;;16.80;99.90;;;;;;6258365;22;20023;-90
2022/07/07 13:11:51;;;;;;;2.45;0.65;;;16.80;99.90;;;;;;6232246;22;20015;-93
2022/07/07 13:14:20;;;;;;;3.72;0.57;;;17.00;99.90;;;;;;6236383;22;20012;-89
2022/07/07 13:16:47;;;;;;;2.33;0.35;;;17.00;99.90;;;;;;6260001;22;20026;-90
2022/07/07 13:19:14;;;;;;;3.33;0.50;;;17.00;99.90;;;;;;6257967;22;20503;-89
2022/07/07 13:21:43;;;;;;;2.15;0.43;;;17.10;99.90;;;;;;6234399;22;20475;-92
2022/07/07 13:24:09;;;;;;;1.20;0.20;;;17.10;99.90;;;;;;6233448;22;20449;-90
2022/07/07 13:26:36;;;;;;;1.17;0.40;;;17.20;99.90;;;;;;6234705;22;20026;-90
2022/07/07 13:29:02;;;;;;;4.80;0.60;;;17.20;99.90;;;;;;6258352;22;20012;-90
2022/07/07 13:31:28;;;;;;;2.42;0.65;;;17.10;99.90;;;;;;6231683;22;20022;-90
2022/07/07 13:33:54;;;;;;;7.72;1.00;;;17.10;99.90;;;;;;6232603;22;20868;-89
2022/07/07 13:36:20;;;;;;;3.70;0.55;;;16.90;99.90;;;;;;6258941;22;20030;-91
2022/07/07 13:38:48;;;;;;;2.65;0.88;;;16.90;99.90;;;;;;6233599;22;20012;-89
2022/07/07 13:41:15;;;;;;;1.35;0.40;;;16.80;99.90;;;;;;6257523;22;20024;-88
2022/07/07 13:43:42;;;;;;;3.58;0.50;;;16.80;99.90;;;;;;6231545;22;20019;-91
2022/07/07 13:46:08;;;;;;;2.58;0.85;;;16.90;99.90;;;;;;6232155;22;20016;-89
2022/07/07 13:48:33;;;;;;;1.00;0.35;;;17.00;99.90;;;;;;6231235;22;20016;-88
2022/07/07 13:51:00;;;;;;;2.92;0.47;;;17.00;99.90;;;;;;6257088;22;20090;-91
2022/07/07 13:53:26;;;;;;;3.58;0.70;;;17.20;99.90;;;;;;6231967;22;20015;-90
2022/07/07 13:55:51;;;;;;;1.25;0.32;;;17.20;99.90;;;;;;6197825;23;20022;-89
2022/07/07 13:58:17;;;;;;;3.45;0.90;;;17.20;99.90;;;;;;6101963;23;20022;-92
2022/07/07 14:00:45;;;;;;;3.95;0.52;;;17.10;99.90;;;;;;6103892;23;20447;-90
2022/07/07 14:03:12;;;;;;;2.50;1.08;;;17.00;99.90;;;;;;6104828;23;20347;-89
2022/07/07 14:05:37;;;;;;;1.95;0.63;;;17.00;99.90;;;;;;6103062;23;20044;-90
2022/07/07 14:08:04;;;;;;;5.82;0.80;;;17.00;99.90;;;;;;6102697;23;20014;-89
2022/07/07 14:10:30;;;;;;;2.53;0.57;;;17.00;99.90;;;;;;6103312;23;20022;-90
2022/07/07 14:12:56;;;;;;;2.88;0.50;;;17.00;99.90;;;;;;6102289;23;20040;-90
2022/07/07 14:15:21;;;;;;;3.20;0.30;;;17.00;99.90;;;;;;6103965;23;20507;-89
2022/07/07 14:17:50;;;;;;;5.93;0.50;;;17.00;99.90;;;;;;6104853;23;20280;-90
2022/07/07 14:20:16;;;;;;;1.85;0.30;;;17.10;99.90;;;;;;6103093;23;20022;-90
2022/07/07 14:22:42;;;;;;;1.85;0.55;;;17.10;99.90;;;;;;6103297;23;20025;-89
2022/07/07 14:25:09;;;;;;;3.53;0.52;;;17.10;99.90;;;;;;6103494;23;20415;-92
2022/07/07 14:27:37;;;;;;;2.20;0.40;;;17.10;99.90;;;;;;6103389;23;20024;-91
2022/07/07 14:30:04;;;;;;;3.75;0.60;;;17.00;99.90;;;;;;6102265;23;20014;-90
2022/07/07 14:32:31;;;;;;;2.63;0.50;;;17.00;99.90;;;;;;6104103;23;20021;-91
2022/07/07 14:34:58;;;;;;;1.15;0.25;;;16.90;99.90;;;;;;6104454;23;20021;-91
2022/07/07 14:37:32;;;;;;;2.72;0.47;;;16.90;99.90;;;;;;6111470;22;20057;-91
2022/07/07 14:40:00;;;;;;;3.83;0.63;;;16.90;99.90;;;;;;6121118;22;20459;-92
2022/07/07 14:42:26;;;;;;;5.35;0.57;;;16.90;99.90;;;;;;6107910;23;20094;-91
2022/07/07 14:45:00;;;;;;;3.53;0.50;;;16.90;99.90;;;;;;6130048;23;20021;-90
2022/07/07 14:47:26;;;;;;;3.72;0.63;;;16.80;99.90;;;;;;6107535;23;20010;-89
2022/07/07 14:49:53;;;;;;;3.35;0.50;;;16.80;99.90;;;;;;6133175;23;20029;-91
2022/07/07 14:52:19;;;;;;;2.40;0.30;;;16.80;99.90;;;;;;6105989;23;20074;-91
2022/07/07 14:54:45;;;;;;;2.60;0.50;;;16.80;99.90;;;;;;6105252;23;20064;-94
2022/07/07 14:57:11;;;;;;;4.47;0.45;;;16.80;99.90;;;;;;6106210;23;20080;-89
2022/07/07 14:59:37;;;;;;;2.10;0.30;;;16.80;99.90;;;;;;6232527;23;20092;-91
2022/07/07 15:02:03;;;;;;;1.30;0.32;;;16.90;99.90;;;;;;6231716;23;20022;-91
2022/07/07 15:04:32;;;;;;;2.47;0.50;;;16.90;99.90;;;;;;6231140;23;20021;-90
2022/07/07 15:06:58;;;;;;;3.10;0.50;;;16.90;99.90;;;;;;6104487;23;20052;-92
2022/07/07 15:09:23;;;;;;;3.75;0.50;;;16.90;99.90;;;;;;6104943;23;20022;-91
2022/07/07 15:11:49;;;;;;;1.65;0.32;;;16.80;99.90;;;;;;6104664;23;20021;-89
2022/07/07 15:14:16;;;;;;;2.05;0.40;;;16.80;99.90;;;;;;6105270;23;20014;-92
2022/07/07 15:16:42;;;;;;;4.85;0.88;;;16.80;99.90;;;;;;6207060;23;20022;-89
2022/07/07 15:19:08;;;;;;;2.33;0.43;;;16.80;99.90;;;;;;6104017;23;20018;-90
2022/07/07 15:21:34;;;;;;;2.58;0.40;;;16.80;99.90;;;;;;6206822;23;20102;-90
2022/07/07 15:24:00;;;;;;;2.88;0.30;;;16.80;99.90;;;;;;6232378;23;20431;-89
2022/07/07 15:26:27;;;;;;;1.58;0.40;;;16.70;99.90;;;;;;6105070;23;20080;-90
2022/07/07 15:28:56;;;;;;;0.95;0.40;;;16.70;99.90;;;;;;6131543;23;20021;-89
2022/07/07 15:31:30;;;;;;;4.63;0.40;;;16.70;99.90;;;;;;6130903;23;20022;-91
2022/07/07 15:33:59;;;;;;;2.90;0.40;;;16.70;99.90;;;;;;6184663;23;20107;-91
2022/07/07 15:36:25;;;;;;;2.63;0.60;;;16.70;99.90;;;;;;6233150;23;20025;-92
2022/07/07 15:38:51;;;;;;;2.03;0.30;;;16.60;99.90;;;;;;6109155;23;20089;-90
2022/07/07 15:41:21;;;;;;;3.15;0.32;;;16.60;99.90;;;;;;6129667;23;20048;-89
2022/07/07 15:43:52;;;;;;;;;;;16.60;99.90;;;;;;6206872;23;20010;-91
2022/07/07 15:46:25;;;;;;;2.45;0.50;;;16.60;99.90;;;;;;6206914;23;19913;-90
2022/07/07 15:48:55;;;;;;;2.25;0.43;;;16.50;99.90;;;;;;6131913;22;20025;-90
2022/07/07 15:51:20;;;;;;;1.25;0.40;;;16.50;99.90;;;;;;6233203;23;20482;-90
2022/07/07 15:53:49;;;;;;;3.60;0.50;;;16.60;99.90;;;;;;6233918;23;20014;-88
2022/07/07 16:11:28;;;;;;;1.38;0.30;;;16.60;99.90;;;;;;6285073;22;20020;-91
2022/07/07 16:13:55;;;;;;;;;;;16.60;99.90;;;;;;6259623;22;20023;-89
2022/07/07 16:16:40;;;;;;;3.47;0.50;;;16.60;99.90;;;;;;6268421;22;19931;-89
2022/07/07 16:19:06;;;;;;;2.13;0.52;;;16.60;99.90;;;;;;6261119;22;20012;-87
2022/07/07 16:21:32;;;;;;;5.15;0.70;;;16.50;99.90;;;;;;6260588;22;20015;-88
2022/07/07 16:24:00;;;;;;;1.50;0.43;;;16.60;99.90;;;;;;6239869;22;20511;-88
2022/07/07 16:26:25;;;;;;;3.08;0.38;;;16.50;99.90;;;;;;6235069;22;20018;-90
2022/07/07 16:28:52;;;;;;;1.58;0.63;;;16.50;99.90;;;;;;6233062;22;20098;-88
2022/07/07 16:31:18;;;;;;;1.40;0.50;;;16.50;99.90;;;;;;6231525;22;20022;-88
2022/07/07 16:33:44;;;;;;;2.72;0.40;;;16.50;99.90;;;;;;6230850;22;20023;-93
2022/07/07 16:36:12;;;;;;;4.40;0.40;;;16.50;99.90;;;;;;6226728;22;20016;-91
2022/07/07 16:38:38;;;;;;;3.45;0.60;;;16.50;99.90;;;;;;6227043;22;20015;-90
2022/07/07 16:41:04;;;;;;;2.03;0.50;;;16.50;99.90;;;;;;6229669;22;20026;-91
2022/07/07 16:43:32;;;;;;;2.75;0.40;;;16.40;99.90;;;;;;6204607;22;20019;-89
2022/07/07 16:46:00;;;;;;;2.28;0.43;;;16.40;99.90;;;;;;6230497;22;20090;-92
2022/07/07 16:48:26;;;;;;;5.60;0.70;;;16.50;99.90;;;;;;6205017;22;20019;-92
2022/07/07 16:50:52;;;;;;;3.05;0.77;;;16.50;99.90;;;;;;6230824;22;20020;-91
2022/07/07 16:53:19;;;;;;;2.70;0.57;;;16.40;99.90;;;;;;6231154;22;20020;-95
2022/07/07 16:55:44;;;;;;;3.85;0.47;;;16.40;99.90;;;;;;6203094;22;20027;-91
2022/07/07 16:58:11;;;;;;;3.60;1.00;;;16.40;99.90;;;;;;6228724;22;20012;-95
2022/07/07 17:00:37;;;;;;;3.85;0.77;;;16.40;99.90;;;;;;6228422;22;20449;-92
2022/07/07 17:03:04;;;;;;;2.97;0.50;;;16.40;99.90;;;;;;6226791;22;20099;-92
2022/07/07 17:05:29;;;;;;;2.15;0.30;;;16.40;99.90;;;;;;6228806;22;20050;-94
2022/07/07 17:07:55;;;;;;;3.80;0.60;;;16.30;99.90;;;;;;6231266;22;20011;-90
2022/07/07 17:10:22;;;;;;;3.20;0.50;;;16.30;99.90;;;;;;6226821;22;20365;-91
2022/07/07 17:12:47;;;;;;;5.20;0.73;;;16.20;99.90;;;;;;6227274;22;20019;-88
2022/07/07 17:15:13;;;;;;;1.75;0.50;;;16.20;99.90;;;;;;6229396;22;20018;-89
2022/07/07 17:17:39;;;;;;;2.17;0.40;;;16.20;99.90;;;;;;6232761;22;20062;-89
2022/07/07 17:20:06;;;;;;;2.28;0.40;;;16.20;99.90;;;;;;6234399;22;20102;-92
2022/07/07 17:22:32;;;;;;;1.38;0.43;;;16.20;99.90;;;;;;6247330;22;20061;-85
2022/07/07 17:24:59;;;;;;;4.10;0.40;;;16.20;99.90;;;;;;6242033;22;20027;-86
2022/07/07 17:27:24;;;;;;;;;;;16.20;99.90;;;;;;6230242;22;20015;-94
2022/07/07 17:29:50;;;;;;;2.33;0.50;;;16.20;99.90;;;;;;6227289;22;19954;-89
2022/07/07 17:32:16;;;;;;;3.03;0.50;;;16.20;99.90;;;;;;6216613;22;20047;-90
2022/07/07 17:34:41;;;;;;;2.10;0.50;;;16.20;99.90;;;;;;6255839;22;20026;-89
2022/07/07 17:37:07;;;;;;;1.45;0.70;;;16.20;99.90;;;;;;6206949;22;20015;-92
2022/07/07 17:39:33;;;;;;;4.15;0.47;;;16.20;99.90;;;;;;6256112;22;20016;-94
2022/07/07 17:41:59;;;;;;;4.00;0.50;;;16.10;99.90;;;;;;6259903;22;20050;-91
2022/07/07 17:44:26;;;;;;;3.67;0.43;;;16.10;99.90;;;;;;6233644;22;20015;-87
2022/07/07 17:46:51;;;;;;;3.17;0.40;;;16.10;99.90;;;;;;6258345;22;20337;-92
2022/07/07 17:49:17;;;;;;;1.85;0.30;;;16.10;99.90;;;;;;6259446;22;20022;-88
2022/07/07 17:51:46;;;;;;;1.92;0.47;;;16.10;99.90;;;;;;6233147;22;20043;-89
2022/07/07 17:54:12;;;;;;;4.25;0.68;;;16.10;99.90;;;;;;6258957;22;20474;-92
2022/07/07 17:56:37;;;;;;;2.92;0.60;;;16.10;99.90;;;;;;6233436;22;20019;-88
2022/07/07 17:59:03;;;;;;;2.63;0.60;;;16.10;99.90;;;;;;6233623;22;20015;-87
2022/07/07 18:01:35;;;;;;;1.65;0.52;;;16.10;99.90;;;;;;6259523;22;20242;-89
2022/07/07 18:04:04;;;;;;;3.28;0.43;;;16.00;99.90;;;;;;6262001;22;20094;-91
2022/07/07 18:06:30;;;;;;;3.00;0.45;;;16.00;99.90;;;;;;6212098;22;20063;-88
2022/07/07 18:08:59;;;;;;;2.65;0.73;;;16.00;99.90;;;;;;6236018;22;20016;-88
2022/07/07 18:11:26;;;;;;;2.33;0.57;;;16.00;99.90;;;;;;6234364;22;20016;-89
2022/07/07 18:13:52;;;;;;;3.97;0.70;;;15.90;99.90;;;;;;6258106;22;20022;-90
2022/07/07 18:16:18;;;;;;;5.65;0.80;;;15.90;99.90;;;;;;6234106;22;20199;-88
2022/07/07 18:18:44;;;;;;;2.30;0.40;;;15.90;99.90;;;;;;6234298;22;20445;-89
2022/07/07 18:21:10;;;;;;;1.30;0.40;;;15.90;99.90;;;;;;6233663;22;20008;-89
2022/07/07 18:23:37;;;;;;;2.45;0.40;;;15.90;99.90;;;;;;6234880;22;20015;-89
2022/07/07 18:26:04;;;;;;;;;;;15.90;99.90;;;;;;6260349;22;20015;-90
2022/07/07 18:28:37;;;;;;;1.80;0.73;;;15.90;99.90;;;;;;6260202;22;19916;-90
2022/07/07 18:31:06;;;;;;;4.03;0.63;;;15.90;99.90;;;;;;6233601;22;20016;-88
2022/07/07 18:33:35;;;;;;;3.22;0.60;;;15.90;99.90;;;;;;6234497;22;20099;-89
2022/07/07 18:36:05;;;;;;;1.95;0.43;;;15.90;99.90;;;;;;6258883;22;20019;-89
2022/07/07 18:38:30;;;;;;;2.28;0.60;;;15.90;99.90;;;;;;6233109;22;20012;-88
2022/07/07 18:40:57;;;;;;;1.85;0.50;;;15.90;99.90;;;;;;6233307;22;20012;-87
2022/07/07 18:43:24;;;;;;;2.05;0.40;;;15.90;99.90;;;;;;6261571;22;20072;-87
2022/07/07 18:46:11;;;;;;;2.20;0.68;;;15.90;99.90;;;;;;6234402;22;20015;-90
2022/07/07 18:48:39;;;;;;;4.97;0.68;;;15.80;99.90;;;;;;6258863;22;20022;-89
2022/07/07 18:53:49;;;;;;;4.28;0.60;;;15.80;99.90;;;;;;6260262;22;20361;-89
2022/07/07 18:56:15;;;;;;;1.63;0.30;;;15.80;99.90;;;;;;6233990;22;20073;-89
2022/07/07 18:58:41;;;;;;;1.85;0.60;;;15.80;99.90;;;;;;6234502;22;20012;-88